createdAt,value
2019-01-02T00:00:19.196Z,3.92
2019-01-02T00:01:19.177Z,3.98
2019-01-02T00:02:19.144Z,4.00
2019-01-02T00:03:19.125Z,4.01
2019-01-02T00:04:19.101Z,4.01
2019-01-02T00:05:19.076Z,3.98
2019-01-02T00:06:19.047Z,4.07
2019-01-02T00:07:19.028Z,4.01
2019-01-02T00:08:19.002Z,3.98
2019-01-02T00:09:18.977Z,3.97
2019-01-02T00:10:18.946Z,3.89
2019-01-02T00:11:18.929Z,3.90
2019-01-02T00:12:18.897Z,3.97
2019-01-02T00:13:18.875Z,3.97
2019-01-02T00:14:18.849Z,3.97
2019-01-02T00:15:18.830Z,3.98
2019-01-02T00:16:18.849Z,3.92
2019-01-02T00:17:18.772Z,3.90
2019-01-02T00:18:18.753Z,4.07
2019-01-02T00:19:18.725Z,4.04
2019-01-02T00:20:18.699Z,4.10
2019-01-02T00:21:18.680Z,4.12
2019-01-02T00:22:18.658Z,4.16
2019-01-02T00:23:18.622Z,4.18
2019-01-02T00:24:18.600Z,4.07
2019-01-02T00:25:18.574Z,4.18
2019-01-02T00:26:18.552Z,4.04
2019-01-02T00:27:18.530Z,4.06
2019-01-02T00:28:18.504Z,4.15
2019-01-02T00:29:18.476Z,4.06
2019-01-02T00:30:18.456Z,4.12
2019-01-02T00:31:18.428Z,4.03
2019-01-02T00:32:18.411Z,4.07
2019-01-02T00:33:18.384Z,4.01
2019-01-02T00:34:18.364Z,3.92
2019-01-02T00:35:18.333Z,3.90
2019-01-02T00:36:18.304Z,3.94
2019-01-02T00:37:18.279Z,3.96
2019-01-02T00:38:18.273Z,4.03
2019-01-02T00:39:18.237Z,4.00
2019-01-02T00:40:18.205Z,4.03
2019-01-02T00:41:18.179Z,3.98
2019-01-02T00:42:18.160Z,4.10
2019-01-02T00:43:18.138Z,4.16
2019-01-02T00:44:18.108Z,4.15
2019-01-02T00:45:22.314Z,4.16
2019-01-02T00:46:18.055Z,4.10
2019-01-02T00:47:18.033Z,4.16
2019-01-02T00:48:18.008Z,4.15
2019-01-02T00:49:17.982Z,4.01
2019-01-02T00:50:17.962Z,4.14
2019-01-02T00:51:17.937Z,4.18
2019-01-02T00:52:17.907Z,4.19
2019-01-02T00:53:17.882Z,4.25
2019-01-02T00:54:17.866Z,4.32
2019-01-02T00:55:17.833Z,4.29
2019-01-02T00:56:17.816Z,4.32
2019-01-02T00:57:17.785Z,4.37
2019-01-02T00:58:17.760Z,4.32
2019-01-02T00:59:17.742Z,4.36
2019-01-02T01:00:17.712Z,4.54
2019-01-02T01:01:17.684Z,4.39
2019-01-02T01:02:17.662Z,4.42
2019-01-02T01:03:17.640Z,4.51
2019-01-02T01:04:17.612Z,4.40
2019-01-02T01:05:17.593Z,4.40
2019-01-02T01:06:17.563Z,4.34
2019-01-02T01:07:17.541Z,4.44
2019-01-02T01:08:17.515Z,4.43
2019-01-02T01:09:17.488Z,4.34
2019-01-02T01:10:17.463Z,4.29
2019-01-02T01:11:17.444Z,4.25
2019-01-02T01:12:17.418Z,4.15
2019-01-02T01:13:17.396Z,4.10
2019-01-02T01:14:17.368Z,4.25
2019-01-02T01:15:17.344Z,4.16
2019-01-02T01:16:17.321Z,4.18
2019-01-02T01:17:17.292Z,4.12
2019-01-02T01:18:17.276Z,4.14
2019-01-02T01:19:17.251Z,4.10
2019-01-02T01:20:17.220Z,4.15
2019-01-02T01:21:17.196Z,4.29
2019-01-02T01:22:17.171Z,4.37
2019-01-02T01:23:17.146Z,4.32
2019-01-02T01:24:17.119Z,4.44
2019-01-02T01:25:17.094Z,4.47
2019-01-02T01:26:17.077Z,4.44
2019-01-02T01:27:17.052Z,4.52
2019-01-02T01:28:17.027Z,4.50
2019-01-02T01:29:17.000Z,4.58
2019-01-02T01:30:16.972Z,4.58
2019-01-02T01:31:16.950Z,4.51
2019-01-02T01:32:16.924Z,4.57
2019-01-02T01:33:16.901Z,4.57
2019-01-02T01:34:16.879Z,4.55
2019-01-02T01:35:16.850Z,4.51
2019-01-02T01:36:16.825Z,4.54
2019-01-02T01:37:16.798Z,4.47
2019-01-02T01:38:16.777Z,4.54
2019-01-02T01:39:16.757Z,4.50
2019-01-02T01:40:16.732Z,4.57
2019-01-02T01:41:16.705Z,4.54
2019-01-02T01:42:16.679Z,4.58
2019-01-02T01:43:16.653Z,4.57
2019-01-02T01:44:16.635Z,4.59
2019-01-02T01:45:16.609Z,4.61
2019-01-02T01:46:16.581Z,4.58
2019-01-02T01:47:16.554Z,4.58
2019-01-02T01:48:16.535Z,4.57
2019-01-02T01:49:16.507Z,4.55
2019-01-02T01:50:16.487Z,4.54
2019-01-02T01:51:16.460Z,4.59
2019-01-02T01:52:16.442Z,4.55
2019-01-02T01:53:16.418Z,4.59
2019-01-02T01:54:16.387Z,4.51
2019-01-02T01:55:16.360Z,4.52
2019-01-02T01:56:16.335Z,4.37
2019-01-02T01:57:16.312Z,4.29
2019-01-02T01:58:16.294Z,4.28
2019-01-02T01:59:16.271Z,4.16
2019-01-02T02:00:16.239Z,4.08
2019-01-02T02:01:16.213Z,4.14
2019-01-02T02:02:16.191Z,4.10
2019-01-02T02:03:16.169Z,4.04
2019-01-02T02:04:16.143Z,4.08
2019-01-02T02:05:16.119Z,4.15
2019-01-02T02:06:16.092Z,4.08
2019-01-02T02:07:16.071Z,4.12
2019-01-02T02:08:16.044Z,4.18
2019-01-02T02:09:16.019Z,4.12
2019-01-02T02:10:15.993Z,4.25
2019-01-02T02:11:15.972Z,4.18
2019-01-02T02:12:15.946Z,4.21
2019-01-02T02:13:15.919Z,4.22
2019-01-02T02:14:15.897Z,4.25
2019-01-02T02:15:15.879Z,4.29
2019-01-02T02:16:15.854Z,4.19
2019-01-02T02:17:15.825Z,4.19
2019-01-02T02:18:15.799Z,4.32
2019-01-02T02:19:15.773Z,4.32
2019-01-02T02:20:15.748Z,4.24
2019-01-02T02:21:15.722Z,4.25
2019-01-02T02:22:15.701Z,4.28
2019-01-02T02:23:15.677Z,4.28
2019-01-02T02:24:15.651Z,4.28
2019-01-02T02:25:15.627Z,4.19
2019-01-02T02:26:15.601Z,4.24
2019-01-02T02:27:15.576Z,4.28
2019-01-02T02:28:15.556Z,4.28
2019-01-02T02:29:15.531Z,4.34
2019-01-02T02:30:15.521Z,4.28
2019-01-02T02:31:15.485Z,4.26
2019-01-02T02:32:15.453Z,4.26
2019-01-02T02:33:15.434Z,4.29
2019-01-02T02:34:15.405Z,4.28
2019-01-02T02:35:15.379Z,4.36
2019-01-02T02:36:15.354Z,4.28
2019-01-02T02:37:15.335Z,4.26
2019-01-02T02:38:15.312Z,4.29
2019-01-02T02:39:15.281Z,4.32
2019-01-02T02:40:15.255Z,4.25
2019-01-02T02:41:15.240Z,4.29
2019-01-02T02:42:15.208Z,4.28
2019-01-02T02:43:15.187Z,4.25
2019-01-02T02:44:15.160Z,4.19
2019-01-02T02:45:15.139Z,4.32
2019-01-02T02:46:15.112Z,4.43
2019-01-02T02:47:15.092Z,4.36
2019-01-02T02:48:15.066Z,4.26
2019-01-02T02:49:15.038Z,4.29
2019-01-02T02:50:15.014Z,4.28
2019-01-02T02:51:14.999Z,4.36
2019-01-02T02:52:14.964Z,4.29
2019-01-02T02:53:14.938Z,4.24
2019-01-02T02:54:14.919Z,4.28
2019-01-02T02:55:14.902Z,4.24
2019-01-02T02:56:14.867Z,4.24
2019-01-02T02:57:14.848Z,4.28
2019-01-02T02:58:14.822Z,4.28
2019-01-02T02:59:14.793Z,4.28
2019-01-02T03:00:14.768Z,4.28
2019-01-02T03:01:14.742Z,4.29
2019-01-02T03:02:14.726Z,4.24
2019-01-02T03:03:14.697Z,4.28
2019-01-02T03:04:14.668Z,4.18
2019-01-02T03:05:14.646Z,4.22
2019-01-02T03:06:14.620Z,4.22
2019-01-02T03:07:14.594Z,4.25
2019-01-02T03:08:14.563Z,4.14
2019-01-02T03:09:14.547Z,4.24
2019-01-02T03:10:14.528Z,4.21
2019-01-02T03:11:14.504Z,4.15
2019-01-02T03:12:14.473Z,4.22
2019-01-02T03:13:14.447Z,4.25
2019-01-02T03:14:14.425Z,4.18
2019-01-02T03:15:14.405Z,4.16
2019-01-02T03:16:14.373Z,4.07
2019-01-02T03:17:14.351Z,4.18
2019-01-02T03:18:14.326Z,4.07
2019-01-02T03:19:14.308Z,4.18
2019-01-02T03:20:14.289Z,4.10
2019-01-02T03:21:14.250Z,4.08
2019-01-02T03:22:14.238Z,4.08
2019-01-02T03:23:14.205Z,4.07
2019-01-02T03:24:14.181Z,4.00
2019-01-02T03:25:14.161Z,4.03
2019-01-02T03:26:14.136Z,4.03
2019-01-02T03:27:14.104Z,3.90
2019-01-02T03:28:14.078Z,3.89
2019-01-02T03:29:14.064Z,4.03
2019-01-02T03:30:14.044Z,4.14
2019-01-02T03:31:14.006Z,4.07
2019-01-02T03:32:13.986Z,4.15
2019-01-02T03:33:13.958Z,4.15
2019-01-02T03:34:13.933Z,4.14
2019-01-02T03:35:13.915Z,4.03
2019-01-02T03:36:13.884Z,3.96
2019-01-02T03:37:13.864Z,4.04
2019-01-02T03:38:13.836Z,4.16
2019-01-02T03:39:13.813Z,4.14
2019-01-02T03:40:13.786Z,4.18
2019-01-02T03:41:13.767Z,4.19
2019-01-02T03:42:13.743Z,4.19
2019-01-02T03:43:13.711Z,4.06
2019-01-02T03:44:13.686Z,4.12
2019-01-02T03:45:13.667Z,4.12
2019-01-02T03:46:13.638Z,4.10
2019-01-02T03:47:13.614Z,4.06
2019-01-02T03:48:13.593Z,4.08
2019-01-02T03:49:13.606Z,4.06
2019-01-02T03:50:13.538Z,4.03
2019-01-02T03:51:13.513Z,3.90
2019-01-02T03:52:13.489Z,4.00
2019-01-02T03:53:13.474Z,4.07
2019-01-02T03:54:13.441Z,4.08
2019-01-02T03:55:13.422Z,4.15
2019-01-02T03:56:13.391Z,4.12
2019-01-02T03:57:13.374Z,4.16
2019-01-02T03:58:13.345Z,4.18
2019-01-02T03:59:13.323Z,4.15
2019-01-02T04:00:13.297Z,4.16
2019-01-02T04:01:13.265Z,4.18
2019-01-02T04:02:13.250Z,4.22
2019-01-02T04:03:13.224Z,4.12
2019-01-02T04:04:13.203Z,4.22
2019-01-02T04:05:13.170Z,4.16
2019-01-02T04:06:13.149Z,4.15
2019-01-02T04:07:13.125Z,4.12
2019-01-02T04:08:13.096Z,4.08
2019-01-02T04:09:13.077Z,4.08
2019-01-02T04:10:13.063Z,4.14
2019-01-02T04:11:13.028Z,4.25
2019-01-02T04:12:13.002Z,4.18
2019-01-02T04:13:12.971Z,4.26
2019-01-02T04:14:12.945Z,4.26
2019-01-02T04:15:12.929Z,4.36
2019-01-02T04:16:12.906Z,4.39
2019-01-02T04:17:12.873Z,4.32
2019-01-02T04:18:12.856Z,4.36
2019-01-02T04:19:12.829Z,4.32
2019-01-02T04:20:12.799Z,4.32
2019-01-02T04:21:12.783Z,4.34
2019-01-02T04:22:12.756Z,4.42
2019-01-02T04:23:12.726Z,4.28
2019-01-02T04:24:12.702Z,4.32
2019-01-02T04:25:12.683Z,4.29
2019-01-02T04:26:12.651Z,4.18
2019-01-02T04:27:12.629Z,4.14
2019-01-02T04:28:12.606Z,4.16
2019-01-02T04:29:12.584Z,4.22
2019-01-02T04:30:12.562Z,4.08
2019-01-02T04:31:12.530Z,4.12
2019-01-02T04:32:12.504Z,4.14
2019-01-02T04:33:12.484Z,4.01
2019-01-02T04:34:12.455Z,3.96
2019-01-02T04:35:12.441Z,4.00
2019-01-02T04:36:12.418Z,3.94
2019-01-02T04:37:12.404Z,3.89
2019-01-02T04:38:12.379Z,3.90
2019-01-02T04:39:12.334Z,3.80
2019-01-02T04:40:12.308Z,3.88
2019-01-02T04:41:12.289Z,3.97
2019-01-02T04:42:12.260Z,3.90
2019-01-02T04:43:12.241Z,3.86
2019-01-02T04:44:12.215Z,3.80
2019-01-02T04:45:12.183Z,3.78
2019-01-02T04:46:12.168Z,3.86
2019-01-02T04:47:12.138Z,3.78
2019-01-02T04:48:12.116Z,3.83
2019-01-02T04:49:12.088Z,3.82
2019-01-02T04:50:12.068Z,3.76
2019-01-02T04:51:12.039Z,3.86
2019-01-02T04:52:12.010Z,3.83
2019-01-02T04:53:11.989Z,3.82
2019-01-02T04:54:11.966Z,3.92
2019-01-02T04:55:11.957Z,3.97
2019-01-02T04:56:11.914Z,3.94
2019-01-02T04:57:11.894Z,3.90
2019-01-02T04:58:11.871Z,3.90
2019-01-02T04:59:11.839Z,3.92
2019-01-02T05:00:11.814Z,3.94
2019-01-02T05:01:11.798Z,3.92
2019-01-02T05:02:11.771Z,3.86
2019-01-02T05:03:11.747Z,3.85
2019-01-02T05:04:11.721Z,3.83
2019-01-02T05:05:11.699Z,3.82
2019-01-02T05:06:11.667Z,3.78
2019-01-02T05:07:11.642Z,3.78
2019-01-02T05:08:11.616Z,3.78
2019-01-02T05:09:11.596Z,3.86
2019-01-02T05:10:11.572Z,3.88
2019-01-02T05:11:11.546Z,3.76
2019-01-02T05:12:11.525Z,3.76
2019-01-02T05:13:11.536Z,3.85
2019-01-02T05:14:11.479Z,3.82
2019-01-02T05:15:11.446Z,3.80
2019-01-02T05:16:11.421Z,3.78
2019-01-02T05:17:11.396Z,3.76
2019-01-02T05:18:11.369Z,3.78
2019-01-02T05:19:11.353Z,3.85
2019-01-02T05:20:11.326Z,3.90
2019-01-02T05:21:11.299Z,3.94
2019-01-02T05:22:11.272Z,3.97
2019-01-02T05:23:11.255Z,3.94
2019-01-02T05:24:11.229Z,4.00
2019-01-02T05:25:11.199Z,4.03
2019-01-02T05:26:11.181Z,4.14
2019-01-02T05:27:11.162Z,4.12
2019-01-02T05:28:11.127Z,4.12
2019-01-02T05:29:11.107Z,4.01
2019-01-02T05:30:11.412Z,4.07
2019-01-02T05:31:11.057Z,4.03
2019-01-02T05:32:11.033Z,4.06
2019-01-02T05:33:11.000Z,4.06
2019-01-02T05:34:10.981Z,4.07
2019-01-02T05:35:10.959Z,4.03
2019-01-02T05:36:10.937Z,4.14
2019-01-02T05:37:10.921Z,4.18
2019-01-02T05:38:10.883Z,4.04
2019-01-02T05:39:10.854Z,4.14
2019-01-02T05:40:10.838Z,4.19
2019-01-02T05:41:10.809Z,4.18
2019-01-02T05:42:10.786Z,4.14
2019-01-02T05:43:10.761Z,4.19
2019-01-02T05:44:10.732Z,4.25
2019-01-02T05:45:10.710Z,4.18
2019-01-02T05:46:10.688Z,4.25
2019-01-02T05:47:10.677Z,4.26
2019-01-02T05:48:10.632Z,4.25
2019-01-02T05:49:10.606Z,4.29
2019-01-02T05:50:10.583Z,4.22
2019-01-02T05:51:10.555Z,4.33
2019-01-02T05:52:10.540Z,4.29
2019-01-02T05:53:10.511Z,4.25
2019-01-02T05:54:10.483Z,4.32
2019-01-02T05:55:10.467Z,4.33
2019-01-02T05:56:10.441Z,4.39
2019-01-02T05:57:10.416Z,4.36
2019-01-02T05:58:10.395Z,4.46
2019-01-02T05:59:10.368Z,4.46
2019-01-02T06:00:10.337Z,4.47
2019-01-02T06:01:10.323Z,4.46
2019-01-02T06:02:10.287Z,4.43
2019-01-02T06:03:10.268Z,4.39
2019-01-02T06:04:10.257Z,4.42
2019-01-02T06:05:10.223Z,4.50
2019-01-02T06:06:10.204Z,4.40
2019-01-02T06:07:10.172Z,4.44
2019-01-02T06:08:10.140Z,4.46
2019-01-02T06:09:10.129Z,4.50
2019-01-02T06:10:10.091Z,4.50
2019-01-02T06:11:10.072Z,4.47
2019-01-02T06:12:10.069Z,4.50
2019-01-02T06:13:10.024Z,4.51
2019-01-02T06:14:09.992Z,4.51
2019-01-02T06:15:09.969Z,4.47
2019-01-02T06:16:09.944Z,4.51
2019-01-02T06:17:09.921Z,4.51
2019-01-02T06:18:09.899Z,4.51
2019-01-02T06:19:09.870Z,4.50
2019-01-02T06:20:09.848Z,4.37
2019-01-02T06:21:09.828Z,4.36
2019-01-02T06:22:09.796Z,4.39
2019-01-02T06:23:09.776Z,4.34
2019-01-02T06:24:09.765Z,4.42
2019-01-02T06:25:09.737Z,4.37
2019-01-02T06:26:09.704Z,4.36
2019-01-02T06:27:09.675Z,4.33
2019-01-02T06:28:09.653Z,4.32
2019-01-02T06:29:09.633Z,4.25
2019-01-02T06:30:09.605Z,4.36
2019-01-02T06:31:09.583Z,4.33
2019-01-02T06:32:09.554Z,4.29
2019-01-02T06:33:09.534Z,4.39
2019-01-02T06:34:09.507Z,4.43
2019-01-02T06:35:09.485Z,4.40
2019-01-02T06:36:09.457Z,4.36
2019-01-02T06:37:09.457Z,4.39
2019-01-02T06:38:09.409Z,4.40
2019-01-02T06:39:09.383Z,4.44
2019-01-02T06:40:09.366Z,4.47
2019-01-02T06:41:09.341Z,4.43
2019-01-02T06:42:09.310Z,4.47
2019-01-02T06:43:09.285Z,4.46
2019-01-02T06:44:09.261Z,4.40
2019-01-02T06:45:09.237Z,4.39
2019-01-02T06:46:09.218Z,4.40
2019-01-02T06:47:09.189Z,4.39
2019-01-02T06:48:09.176Z,4.52
2019-01-02T06:49:09.157Z,4.47
2019-01-02T06:50:09.120Z,4.40
2019-01-02T06:51:09.120Z,4.51
2019-01-02T06:52:09.074Z,4.39
2019-01-02T06:53:09.042Z,4.44
2019-01-02T06:54:09.019Z,4.51
2019-01-02T06:55:08.991Z,4.50
2019-01-02T06:56:08.971Z,4.44
2019-01-02T06:57:08.949Z,4.44
2019-01-02T06:58:08.917Z,4.47
2019-01-02T06:59:08.895Z,4.44
2019-01-02T07:00:08.873Z,4.50
2019-01-02T07:01:08.848Z,4.42
2019-01-02T07:02:08.830Z,4.50
2019-01-02T07:03:08.799Z,4.50
2019-01-02T07:04:08.774Z,4.44
2019-01-02T07:05:08.747Z,4.51
2019-01-02T07:06:08.726Z,4.47
2019-01-02T07:07:08.712Z,4.43
2019-01-02T07:08:08.672Z,4.47
2019-01-02T07:09:08.656Z,4.47
2019-01-02T07:10:08.633Z,4.52
2019-01-02T07:11:08.605Z,4.46
2019-01-02T07:12:08.576Z,4.52
2019-01-02T07:13:08.551Z,4.50
2019-01-02T07:14:08.532Z,4.50
2019-01-02T07:15:08.504Z,4.54
2019-01-02T07:16:08.477Z,4.51
2019-01-02T07:17:08.459Z,4.50
2019-01-02T07:18:08.430Z,4.50
2019-01-02T07:19:08.404Z,4.58
2019-01-02T07:20:08.385Z,4.57
2019-01-02T07:21:08.356Z,4.57
2019-01-02T07:22:08.334Z,4.57
2019-01-02T07:23:08.307Z,4.54
2019-01-02T07:24:08.285Z,4.43
2019-01-02T07:25:08.260Z,4.54
2019-01-02T07:26:08.234Z,4.57
2019-01-02T07:27:08.211Z,4.57
2019-01-02T07:28:08.186Z,4.58
2019-01-02T07:29:08.170Z,4.51
2019-01-02T07:30:08.138Z,4.40
2019-01-02T07:31:08.118Z,4.26
2019-01-02T07:32:08.088Z,4.22
2019-01-02T07:33:08.065Z,4.22
2019-01-02T07:34:08.047Z,4.22
2019-01-02T07:35:08.021Z,4.18
2019-01-02T07:36:07.989Z,4.06
2019-01-02T07:37:07.970Z,4.07
2019-01-02T07:38:07.941Z,4.06
2019-01-02T07:39:07.925Z,4.01
2019-01-02T07:40:07.892Z,4.06
2019-01-02T07:41:07.867Z,4.00
2019-01-02T07:42:07.851Z,4.07
2019-01-02T07:43:07.862Z,4.12
2019-01-02T07:44:07.794Z,4.10
2019-01-02T07:45:07.773Z,4.07
2019-01-02T07:46:07.748Z,4.08
2019-01-02T07:47:07.729Z,4.04
2019-01-02T07:48:07.706Z,4.04
2019-01-02T07:49:07.677Z,4.12
2019-01-02T07:50:07.652Z,4.18
2019-01-02T07:51:07.629Z,4.19
2019-01-02T07:52:07.598Z,4.18
2019-01-02T07:53:07.580Z,4.26
2019-01-02T07:54:07.549Z,4.08
2019-01-02T07:55:07.527Z,4.10
2019-01-02T07:56:07.508Z,4.25
2019-01-02T07:57:07.475Z,4.18
2019-01-02T07:58:07.453Z,4.22
2019-01-02T07:59:07.434Z,4.19
2019-01-02T08:00:07.402Z,4.19
2019-01-02T08:01:07.379Z,4.14
2019-01-02T08:02:07.360Z,4.16
2019-01-02T08:03:07.331Z,4.18
2019-01-02T08:04:07.305Z,4.22
2019-01-02T08:05:07.280Z,4.19
2019-01-02T08:06:07.268Z,4.16
2019-01-02T08:07:07.232Z,4.24
2019-01-02T08:08:07.210Z,4.25
2019-01-02T08:09:07.184Z,4.18
2019-01-02T08:10:07.159Z,4.19
2019-01-02T08:11:07.139Z,4.18
2019-01-02T08:12:07.112Z,4.29
2019-01-02T08:13:07.083Z,4.24
2019-01-02T08:14:07.060Z,4.28
2019-01-02T08:15:07.041Z,4.25
2019-01-02T08:16:07.019Z,4.32
2019-01-02T08:17:06.987Z,4.25
2019-01-02T08:18:06.964Z,4.29
2019-01-02T08:19:06.941Z,4.33
2019-01-02T08:20:06.913Z,4.37
2019-01-02T08:21:06.889Z,4.40
2019-01-02T08:22:06.869Z,4.33
2019-01-02T08:23:06.841Z,4.29
2019-01-02T08:24:06.815Z,4.28
2019-01-02T08:25:06.798Z,4.24
2019-01-02T08:26:06.774Z,4.19
2019-01-02T08:27:06.741Z,4.19
2019-01-02T08:28:06.774Z,4.16
2019-01-02T08:29:06.693Z,4.15
2019-01-02T08:30:06.671Z,4.10
2019-01-02T08:31:06.645Z,4.00
2019-01-02T08:32:06.633Z,3.92
2019-01-02T08:33:06.604Z,3.97
2019-01-02T08:34:06.578Z,3.86
2019-01-02T08:35:06.566Z,3.85
2019-01-02T08:36:06.530Z,3.61
2019-01-02T08:37:06.507Z,3.47
2019-01-02T08:38:06.476Z,3.46
2019-01-02T08:39:06.470Z,3.34
2019-01-02T08:40:06.425Z,3.31
2019-01-02T08:41:06.400Z,3.25
2019-01-02T08:42:06.384Z,3.33
2019-01-02T08:43:06.361Z,3.27
2019-01-02T08:44:06.330Z,3.24
2019-01-02T08:45:06.302Z,3.21
2019-01-02T08:46:06.279Z,3.09
2019-01-02T08:47:06.254Z,3.15
2019-01-02T08:48:06.235Z,3.10
2019-01-02T08:49:06.215Z,3.12
2019-01-02T08:50:06.180Z,3.09
2019-01-02T08:51:06.154Z,3.09
2019-01-02T08:52:06.135Z,3.07
2019-01-02T08:53:06.113Z,3.06
2019-01-02T08:54:06.154Z,3.07
2019-01-02T08:58:41.701Z,2.98
2019-01-02T08:59:41.666Z,2.92
2019-01-02T09:00:41.637Z,2.91
2019-01-02T09:01:41.637Z,3.00
2019-01-02T09:02:41.589Z,3.00
2019-01-02T09:03:41.598Z,2.97
2019-01-02T09:04:41.541Z,2.97
2019-01-02T09:05:41.515Z,2.95
2019-01-02T09:06:41.496Z,2.92
2019-01-02T09:07:41.469Z,3.03
2019-01-02T09:08:41.446Z,3.05
2019-01-02T09:09:41.415Z,3.06
2019-01-02T09:10:41.396Z,3.05
2019-01-02T09:11:41.368Z,3.00
2019-01-02T09:12:41.342Z,2.94
2019-01-02T09:13:41.316Z,3.05
2019-01-02T09:14:41.296Z,3.10
2019-01-02T09:15:41.269Z,3.09
2019-01-02T09:16:41.241Z,3.09
2019-01-02T09:17:41.225Z,3.18
2019-01-02T09:18:41.200Z,3.24
2019-01-02T09:19:41.175Z,3.18
2019-01-02T09:20:41.152Z,3.21
2019-01-02T09:21:41.120Z,3.20
2019-01-02T09:22:41.104Z,3.28
2019-01-02T09:23:41.088Z,3.33
2019-01-02T09:24:41.047Z,3.28
2019-01-02T09:25:41.021Z,3.43
2019-01-02T09:26:40.999Z,3.31
2019-01-02T09:27:40.973Z,3.34
2019-01-02T09:28:40.957Z,3.30
2019-01-02T09:29:40.925Z,3.33
2019-01-02T09:30:40.900Z,3.30
2019-01-02T09:31:40.883Z,3.44
2019-01-02T09:32:40.851Z,3.58
2019-01-02T09:33:40.845Z,3.61
2019-01-02T09:34:40.806Z,3.65
2019-01-02T09:35:40.801Z,3.70
2019-01-02T09:36:40.755Z,3.82
2019-01-02T09:37:40.734Z,3.80
2019-01-02T09:38:40.705Z,3.90
2019-01-02T09:39:40.681Z,3.94
2019-01-02T09:40:40.731Z,4.14
2019-01-02T09:41:40.632Z,4.18
2019-01-02T09:42:40.616Z,4.24
2019-01-02T09:43:40.591Z,4.26
2019-01-02T09:44:40.558Z,4.36
2019-01-02T09:45:40.542Z,4.44
2019-01-02T09:46:40.517Z,4.61
2019-01-02T09:47:40.493Z,4.54
2019-01-02T09:48:40.470Z,4.79
2019-01-02T09:49:40.438Z,4.88
2019-01-02T09:50:40.415Z,4.92
2019-01-02T09:51:40.389Z,4.89
2019-01-02T09:52:40.367Z,4.80
2019-01-02T09:53:40.348Z,4.86
2019-01-02T09:54:40.319Z,4.83
2019-01-02T09:55:40.300Z,4.86
2019-01-02T09:56:40.285Z,4.91
2019-01-02T09:57:40.246Z,4.73
2019-01-02T09:58:40.223Z,4.86
2019-01-02T09:59:40.198Z,4.88
2019-01-02T10:00:40.182Z,5.02
2019-01-02T10:01:40.159Z,5.64
2019-01-02T10:02:40.153Z,6.38
2019-01-02T10:03:40.102Z,7.07
2019-01-02T10:04:40.086Z,7.44
2019-01-02T10:05:40.060Z,7.71
2019-01-02T10:06:40.032Z,7.56
2019-01-02T10:07:40.013Z,7.24
2019-01-02T10:08:39.987Z,6.94
2019-01-02T10:09:39.971Z,6.72
2019-01-02T10:10:39.942Z,6.48
2019-01-02T10:11:39.911Z,6.19
2019-01-02T10:12:39.894Z,6.10
2019-01-02T10:13:39.870Z,6.07
2019-01-02T10:14:39.851Z,6.09
2019-01-02T10:15:39.830Z,6.06
2019-01-02T10:16:39.806Z,5.98
2019-01-02T10:17:39.784Z,5.86
2019-01-02T10:18:39.752Z,5.71
2019-01-02T10:19:39.733Z,5.71
2019-01-02T10:20:43.837Z,5.73
2019-01-02T10:21:39.694Z,5.71
2019-01-02T10:22:39.659Z,5.82
2019-01-02T10:23:39.638Z,5.85
2019-01-02T10:24:39.618Z,6.04
2019-01-02T10:25:39.598Z,6.10
2019-01-02T10:26:39.567Z,6.21
2019-01-02T10:27:39.548Z,6.16
2019-01-02T10:28:39.522Z,6.07
2019-01-02T10:29:39.505Z,6.04
2019-01-02T10:30:39.484Z,6.00
2019-01-02T10:31:39.460Z,5.93
2019-01-02T10:32:39.428Z,5.95
2019-01-02T10:33:39.417Z,5.83
2019-01-02T10:34:39.383Z,5.85
2019-01-02T10:35:39.358Z,5.78
2019-01-02T10:36:39.342Z,5.74
2019-01-02T10:37:39.316Z,5.67
2019-01-02T10:38:39.299Z,5.63
2019-01-02T10:39:39.266Z,5.64
2019-01-02T10:40:39.244Z,5.59
2019-01-02T10:41:39.222Z,5.55
2019-01-02T10:42:39.202Z,5.64
2019-01-02T10:43:39.185Z,5.57
2019-01-02T10:44:39.154Z,5.57
2019-01-02T10:45:39.129Z,5.55
2019-01-02T10:46:39.112Z,5.57
2019-01-02T10:47:39.080Z,5.56
2019-01-02T10:48:39.067Z,5.56
2019-01-02T10:49:39.040Z,5.59
2019-01-02T10:50:39.019Z,5.53
2019-01-02T10:51:38.994Z,5.38
2019-01-02T10:52:38.968Z,5.45
2019-01-02T10:53:38.942Z,5.31
2019-01-02T10:54:38.923Z,5.17
2019-01-02T10:55:38.900Z,5.13
2019-01-02T10:56:38.872Z,5.12
2019-01-02T10:57:38.852Z,5.01
2019-01-02T10:58:38.821Z,4.96
2019-01-02T10:59:38.801Z,4.94
2019-01-02T11:00:38.775Z,4.89
2019-01-02T11:01:38.753Z,4.89
2019-01-02T11:02:38.737Z,4.76
2019-01-02T11:03:38.711Z,4.73
2019-01-02T11:04:38.682Z,4.59
2019-01-02T11:05:38.657Z,4.59
2019-01-02T11:06:38.637Z,4.58
2019-01-02T11:07:38.615Z,4.43
2019-01-02T11:08:38.592Z,4.55
2019-01-02T11:09:38.571Z,4.50
2019-01-02T11:10:38.545Z,4.47
2019-01-02T11:11:38.522Z,4.50
2019-01-02T11:12:38.490Z,4.50
2019-01-02T11:13:38.471Z,4.58
2019-01-02T11:14:38.445Z,4.50
2019-01-02T11:15:38.426Z,4.42
2019-01-02T11:16:38.404Z,4.51
2019-01-02T11:17:38.374Z,4.47
2019-01-02T11:18:38.356Z,4.57
2019-01-02T11:19:38.330Z,4.69
2019-01-02T11:20:38.306Z,4.64
2019-01-02T11:21:38.283Z,4.62
2019-01-02T11:22:38.272Z,4.61
2019-01-02T11:23:38.229Z,4.69
2019-01-02T11:24:38.207Z,4.65
2019-01-02T11:25:38.191Z,4.51
2019-01-02T11:26:38.165Z,4.58
2019-01-02T11:27:38.137Z,4.55
2019-01-02T11:28:38.114Z,4.52
2019-01-02T11:29:38.096Z,4.59
2019-01-02T11:30:38.070Z,4.64
2019-01-02T11:31:38.041Z,5.20
2019-01-02T11:32:38.027Z,5.81
2019-01-02T11:33:38.001Z,6.07
2019-01-02T11:34:37.976Z,5.88
2019-01-02T11:35:37.946Z,5.63
2019-01-02T11:36:37.930Z,5.41
2019-01-02T11:37:37.901Z,5.35
2019-01-02T11:38:37.878Z,5.46
2019-01-02T11:39:37.863Z,5.59
2019-01-02T11:40:37.832Z,6.09
2019-01-02T11:41:37.818Z,6.43
2019-01-02T11:42:37.783Z,6.79
2019-01-02T11:43:37.767Z,7.07
2019-01-02T11:44:37.738Z,7.05
2019-01-02T11:45:37.715Z,6.95
2019-01-02T11:46:37.693Z,6.77
2019-01-02T11:47:37.668Z,6.50
2019-01-02T11:48:37.648Z,6.43
2019-01-02T11:49:37.655Z,7.08
2019-01-02T11:50:37.620Z,7.26
2019-01-02T11:51:37.581Z,7.09
2019-01-02T11:52:37.562Z,7.32
2019-01-02T11:53:37.536Z,7.20
2019-01-02T11:54:37.517Z,7.13
2019-01-02T11:55:37.490Z,7.32
2019-01-02T11:56:37.474Z,7.26
2019-01-02T11:57:37.445Z,7.29
2019-01-02T11:58:37.424Z,7.38
2019-01-02T11:59:37.400Z,7.34
2019-01-02T12:00:37.395Z,7.50
2019-01-02T12:01:37.374Z,7.41
2019-01-02T12:02:37.343Z,7.52
2019-01-02T12:03:37.317Z,7.78
2019-01-02T12:04:37.302Z,7.84
2019-01-02T12:05:37.273Z,7.93
2019-01-02T12:06:37.256Z,8.07
2019-01-02T12:07:37.238Z,8.29
2019-01-02T12:08:37.215Z,8.25
2019-01-02T12:09:37.190Z,7.92
2019-01-02T12:10:37.174Z,7.71
2019-01-02T12:11:37.148Z,7.79
2019-01-02T12:12:37.129Z,7.87
2019-01-02T12:13:37.113Z,7.72
2019-01-02T12:14:37.093Z,7.44
2019-01-02T12:15:37.064Z,7.13
2019-01-02T12:16:37.051Z,7.12
2019-01-02T12:17:37.029Z,7.29
2019-01-02T12:18:37.009Z,7.41
2019-01-02T12:19:36.984Z,7.45
2019-01-02T12:20:36.962Z,7.56
2019-01-02T12:21:36.948Z,7.74
2019-01-02T12:22:36.923Z,7.72
2019-01-02T12:23:36.905Z,7.85
2019-01-02T12:24:36.883Z,8.00
2019-01-02T12:25:36.858Z,8.17
2019-01-02T12:26:36.848Z,8.11
2019-01-02T12:27:36.822Z,8.22
2019-01-02T12:28:36.796Z,8.39
2019-01-02T12:29:36.797Z,8.45
2019-01-02T12:30:36.755Z,8.44
2019-01-02T12:31:36.746Z,8.53
2019-01-02T12:32:36.727Z,8.39
2019-01-02T12:33:36.699Z,8.18
2019-01-02T12:34:36.675Z,8.26
2019-01-02T12:35:36.654Z,8.17
2019-01-02T12:36:36.636Z,8.26
2019-01-02T12:37:36.616Z,8.25
2019-01-02T12:38:36.596Z,7.89
2019-01-02T12:39:36.576Z,7.60
2019-01-02T12:40:36.559Z,7.44
2019-01-02T12:41:36.543Z,7.34
2019-01-02T12:42:36.514Z,7.16
2019-01-02T12:43:36.498Z,6.99
2019-01-02T12:44:36.488Z,6.81
2019-01-02T12:45:36.453Z,7.01
2019-01-02T12:46:36.449Z,7.08
2019-01-02T12:47:36.418Z,7.19
2019-01-02T12:48:36.401Z,7.22
2019-01-02T12:49:36.379Z,7.27
2019-01-02T12:50:36.350Z,7.40
2019-01-02T12:51:36.334Z,7.55
2019-01-02T12:52:36.311Z,7.53
2019-01-02T12:53:36.286Z,7.67
2019-01-02T12:54:36.264Z,7.59
2019-01-02T12:55:36.242Z,7.53
2019-01-02T12:56:36.235Z,7.75
2019-01-02T12:57:36.212Z,7.60
2019-01-02T12:58:36.181Z,7.55
2019-01-02T12:59:36.158Z,7.55
2019-01-02T13:00:36.142Z,7.44
2019-01-02T13:01:36.120Z,7.19
2019-01-02T13:02:36.100Z,7.12
2019-01-02T13:03:36.071Z,6.95
2019-01-02T13:04:36.055Z,6.83
2019-01-02T13:05:36.030Z,6.80
2019-01-02T13:06:36.026Z,6.68
2019-01-02T13:07:35.985Z,6.62
2019-01-02T13:08:35.970Z,6.90
2019-01-02T13:09:35.944Z,6.98
2019-01-02T13:10:35.924Z,7.12
2019-01-02T13:11:35.904Z,6.94
2019-01-02T13:12:35.878Z,6.89
2019-01-02T13:13:35.869Z,6.83
2019-01-02T13:14:35.836Z,6.72
2019-01-02T13:15:35.811Z,6.61
2019-01-02T13:16:35.795Z,6.46
2019-01-02T13:17:35.773Z,6.44
2019-01-02T13:18:35.743Z,6.40
2019-01-02T13:19:35.721Z,6.41
2019-01-02T13:20:35.701Z,6.33
2019-01-02T13:21:35.677Z,6.51